createdAt,value
2022-11-20T00:00:15.851Z,2.00
2022-11-20T00:02:42.385Z,2.00
2022-11-20T00:05:09.151Z,1.60
2022-11-20T00:07:35.623Z,1.00
2022-11-20T00:10:02.855Z,1.67
2022-11-20T00:12:29.298Z,2.80
2022-11-20T00:14:55.723Z,2.00
2022-11-20T00:17:22.174Z,1.40
2022-11-20T00:19:48.626Z,1.00
2022-11-20T00:22:15.232Z,2.00
2022-11-20T00:24:43.130Z,1.00
2022-11-20T00:27:09.803Z,1.00
2022-11-20T00:29:36.272Z,2.00
2022-11-20T00:32:02.687Z,3.00
2022-11-20T00:34:29.101Z,1.00
2022-11-20T00:36:55.554Z,1.00
2022-11-20T00:39:22.286Z,1.00
2022-11-20T00:41:48.901Z,1.00
2022-11-20T00:44:15.313Z,2.00
2022-11-20T00:46:41.794Z,1.00
2022-11-20T00:49:08.251Z,1.75
2022-11-20T00:51:34.660Z,1.00
2022-11-20T00:54:03.052Z,1.00
2022-11-20T00:56:29.816Z,1.00
2022-11-20T00:58:56.355Z,2.00
2022-11-20T01:01:27.448Z,2.20
2022-11-20T01:03:55.142Z,1.00
2022-11-20T01:06:23.375Z,1.00
2022-11-20T01:08:50.609Z,1.00
2022-11-20T01:11:21.167Z,2.00
2022-11-20T01:13:48.645Z,1.00
2022-11-20T01:16:19.192Z,1.60
2022-11-20T01:18:47.558Z,1.40
2022-11-20T01:21:15.693Z,1.80
2022-11-20T01:23:43.175Z,1.00
2022-11-20T01:26:20.488Z,3.00
2022-11-20T01:28:47.321Z,2.00
2022-11-20T01:31:13.954Z,1.00
2022-11-20T01:33:40.798Z,2.00
2022-11-20T01:36:07.624Z,1.00
2022-11-20T01:38:34.110Z,2.00
2022-11-20T01:41:00.587Z,1.00
2022-11-20T01:43:27.456Z,1.00
2022-11-20T01:45:58.842Z,1.00
2022-11-20T01:48:26.676Z,1.00
2022-11-20T01:50:54.638Z,1.00
2022-11-20T01:53:24.949Z,3.00
2022-11-20T01:55:54.436Z,0.50
2022-11-20T01:58:23.419Z,3.00
2022-11-20T02:00:49.866Z,1.00
2022-11-20T02:03:20.635Z,1.00
2022-11-20T02:05:51.512Z,1.00
2022-11-20T02:08:18.657Z,2.00
2022-11-20T02:10:45.082Z,1.00
2022-11-20T02:13:30.507Z,1.00
2022-11-20T02:15:57.038Z,2.00
2022-11-20T02:18:24.226Z,1.20
2022-11-20T02:20:53.927Z,1.00
2022-11-20T02:23:32.381Z,2.00
2022-11-20T02:25:59.426Z,1.00
2022-11-20T02:28:26.455Z,0.00
2022-11-20T02:30:52.896Z,1.00
2022-11-20T02:33:19.305Z,1.00
2022-11-20T02:35:46.829Z,2.00
2022-11-20T02:38:14.091Z,0.00
2022-11-20T02:40:40.790Z,2.00
2022-11-20T02:43:07.426Z,1.80
2022-11-20T02:45:33.926Z,0.00
2022-11-20T02:48:00.363Z,2.00
2022-11-20T02:50:26.795Z,1.00
2022-11-20T02:52:53.224Z,2.00
2022-11-20T02:55:19.654Z,2.00
2022-11-20T02:57:46.192Z,4.60
2022-11-20T03:00:12.951Z,3.00
2022-11-20T03:02:39.366Z,1.00
2022-11-20T03:05:05.916Z,1.60
2022-11-20T03:07:32.416Z,2.00
2022-11-20T03:09:58.852Z,2.00
2022-11-20T03:12:25.273Z,0.75
2022-11-20T03:14:53.267Z,1.80
2022-11-20T03:17:20.150Z,3.50
2022-11-20T03:19:46.588Z,1.00
2022-11-20T03:22:13.082Z,1.00
2022-11-20T03:24:39.480Z,2.00
2022-11-20T03:27:05.903Z,3.00
2022-11-20T03:29:32.304Z,2.00
2022-11-20T03:31:58.889Z,1.00
2022-11-20T03:34:25.307Z,1.75
2022-11-20T03:36:51.735Z,2.80
2022-11-20T03:39:18.283Z,1.00
2022-11-20T03:41:44.887Z,2.25
2022-11-20T03:44:12.409Z,1.80
2022-11-20T03:46:39.192Z,2.00
2022-11-20T03:49:05.721Z,2.00
2022-11-20T03:51:33.488Z,1.00
2022-11-20T03:54:00.959Z,2.40
2022-11-20T03:56:28.680Z,2.00
2022-11-20T03:58:55.381Z,2.00
2022-11-20T04:01:28.985Z,1.00
2022-11-20T04:03:56.074Z,1.00
2022-11-20T04:06:23.935Z,1.00
2022-11-20T04:08:53.873Z,2.00
2022-11-20T04:11:21.616Z,1.00
2022-11-20T04:13:49.040Z,2.00
2022-11-20T04:16:15.726Z,2.00
2022-11-20T04:18:42.131Z,2.00
2022-11-20T04:21:08.646Z,2.00
2022-11-20T04:23:35.162Z,2.40
2022-11-20T04:26:05.880Z,1.00
2022-11-20T04:28:32.320Z,2.00
2022-11-20T04:31:07.788Z,2.00
2022-11-20T04:33:34.661Z,2.00
2022-11-20T04:36:08.650Z,3.40
2022-11-20T04:38:35.242Z,2.50
2022-11-20T04:41:02.572Z,2.00
2022-11-20T04:43:29.503Z,9.50
2022-11-20T04:45:56.748Z,5.80
2022-11-20T04:48:23.502Z,5.25
2022-11-20T04:50:50.230Z,3.00
2022-11-20T04:53:16.683Z,4.00
2022-11-20T04:55:43.174Z,2.00
2022-11-20T04:58:09.604Z,3.20
2022-11-20T05:00:36.047Z,2.00
2022-11-20T05:03:02.602Z,2.20
2022-11-20T05:05:29.055Z,3.00
2022-11-20T05:07:58.778Z,4.00
2022-11-20T05:10:25.967Z,3.50
2022-11-20T05:12:52.479Z,2.00
2022-11-20T05:15:19.104Z,2.80
2022-11-20T05:17:49.384Z,2.25
2022-11-20T05:20:15.870Z,1.50
2022-11-20T05:22:42.453Z,2.00
2022-11-20T05:25:10.247Z,3.25
2022-11-20T05:27:36.704Z,2.00
2022-11-20T05:30:03.763Z,3.00
2022-11-20T05:32:30.176Z,3.00
2022-11-20T05:34:56.624Z,2.00
2022-11-20T05:37:23.223Z,2.00
2022-11-20T05:39:49.631Z,1.50
2022-11-20T05:42:31.306Z,3.00
2022-11-20T05:44:58.331Z,2.40
2022-11-20T05:47:24.886Z,2.00
2022-11-20T05:49:51.291Z,1.20
2022-11-20T05:52:17.742Z,2.00
2022-11-20T05:54:44.174Z,2.75
2022-11-20T05:57:10.583Z,4.00
2022-11-20T05:59:36.962Z,2.20
2022-11-20T06:02:03.437Z,3.00
2022-11-20T06:04:29.925Z,2.00
2022-11-20T06:06:56.329Z,5.00
2022-11-20T06:09:23.007Z,5.00
2022-11-20T06:11:49.583Z,2.50
2022-11-20T06:14:16.020Z,3.00
2022-11-20T06:16:42.446Z,2.00
2022-11-20T06:19:08.857Z,4.50
2022-11-20T06:21:35.282Z,4.00
2022-11-20T06:24:01.825Z,3.00
2022-11-20T06:26:28.923Z,2.00
2022-11-20T06:28:57.080Z,4.00
2022-11-20T06:31:24.561Z,1.50
2022-11-20T06:33:51.541Z,3.20
2022-11-20T06:36:19.478Z,4.60
2022-11-20T06:38:45.922Z,5.00
2022-11-20T06:41:16.784Z,1.00
2022-11-20T06:43:43.528Z,5.00
2022-11-20T06:46:11.076Z,4.20
2022-11-20T06:48:37.611Z,2.00
2022-11-20T06:51:05.018Z,3.50
2022-11-20T06:53:31.463Z,3.00
2022-11-20T06:56:01.351Z,5.00
2022-11-20T06:58:28.984Z,3.40
2022-11-20T07:00:58.768Z,3.00
2022-11-20T07:03:25.185Z,3.75
2022-11-20T07:05:51.618Z,5.50
2022-11-20T07:08:18.161Z,3.00
2022-11-20T07:10:44.574Z,3.00
2022-11-20T07:13:10.993Z,3.60
2022-11-20T07:15:37.446Z,3.40
2022-11-20T07:18:03.928Z,8.60
2022-11-20T07:20:30.367Z,3.50
2022-11-20T07:22:57.465Z,7.40
2022-11-20T07:25:24.611Z,4.00
2022-11-20T07:27:51.045Z,3.40
2022-11-20T07:30:18.108Z,3.00
2022-11-20T07:32:47.685Z,3.00
2022-11-20T07:35:14.169Z,6.00
2022-11-20T07:37:40.584Z,4.00
2022-11-20T07:40:07.209Z,6.00
2022-11-20T07:42:33.662Z,4.00
2022-11-20T07:45:00.068Z,3.00
2022-11-20T07:47:26.518Z,3.00
2022-11-20T07:49:52.949Z,5.00
2022-11-20T07:52:19.373Z,10.00
2022-11-20T07:54:45.796Z,14.40
2022-11-20T07:57:12.203Z,5.00
2022-11-20T07:59:39.875Z,9.50
2022-11-20T08:02:06.429Z,8.25
2022-11-20T08:04:33.262Z,9.75
2022-11-20T08:06:59.700Z,13.50
2022-11-20T08:09:26.143Z,8.00
2022-11-20T08:12:11.146Z,12.00
2022-11-20T08:14:37.548Z,10.60
2022-11-20T08:17:03.973Z,9.50
2022-11-20T08:19:30.570Z,14.33
2022-11-20T08:21:57.075Z,15.00
2022-11-20T08:24:23.470Z,9.00
2022-11-20T08:26:49.990Z,13.00
2022-11-20T08:29:16.453Z,9.00
2022-11-20T08:31:42.902Z,13.60
2022-11-20T08:34:10.258Z,11.40
2022-11-20T08:36:37.843Z,5.00
2022-11-20T08:39:04.337Z,10.75
2022-11-20T08:41:34.116Z,8.00
2022-11-20T08:44:02.794Z,10.60
2022-11-20T08:46:40.345Z,15.00
2022-11-20T08:49:07.466Z,18.00
2022-11-20T08:51:34.120Z,19.00
2022-11-20T08:54:00.683Z,23.50
2022-11-20T08:56:27.146Z,22.40
2022-11-20T09:01:40.468Z,65.40
2022-11-20T09:04:06.970Z,19.50
2022-11-20T09:06:33.394Z,29.25
2022-11-20T09:09:06.092Z,28.00
2022-11-20T09:11:33.306Z,21.00
2022-11-20T09:13:59.772Z,29.50
2022-11-20T09:16:26.171Z,9.50
2022-11-20T09:19:07.315Z,5.50
2022-11-20T09:21:39.136Z,14.00
2022-11-20T09:24:05.980Z,20.20
2022-11-20T09:26:32.374Z,24.67
2022-11-20T09:28:58.779Z,20.75
2022-11-20T09:31:26.881Z,15.50
2022-11-20T09:33:53.424Z,14.60
2022-11-20T09:36:19.903Z,8.00
2022-11-20T09:38:46.887Z,13.50
2022-11-20T09:41:31.983Z,7.50
2022-11-20T09:44:04.951Z,19.75
2022-11-20T09:46:37.267Z,10.50
2022-11-20T09:49:04.020Z,13.75
2022-11-20T09:51:36.685Z,23.80
2022-11-20T09:54:15.403Z,22.00
2022-11-20T09:56:43.836Z,12.00
2022-11-20T09:59:17.021Z,10.40
2022-11-20T10:01:44.262Z,21.25
2022-11-20T10:04:21.659Z,16.50
2022-11-20T10:07:31.931Z,16.00
2022-11-20T10:09:59.539Z,10.00
2022-11-20T10:12:25.974Z,7.00
2022-11-20T10:15:15.693Z,6.20
2022-11-20T10:18:01.093Z,7.00
2022-11-20T10:20:47.261Z,6.20
2022-11-20T10:23:32.651Z,7.00
2022-11-20T10:26:08.097Z,4.00
2022-11-20T10:28:55.400Z,3.20
2022-11-20T10:31:26.573Z,4.60
2022-11-20T10:34:11.766Z,5.25
2022-11-20T10:36:47.432Z,7.00
2022-11-20T10:39:25.072Z,6.40
2022-11-20T10:41:52.937Z,2.60
2022-11-20T10:44:42.239Z,8.00
2022-11-20T10:47:13.636Z,6.40
2022-11-20T10:49:41.433Z,8.40
2022-11-20T10:52:13.786Z,2.60
2022-11-20T10:54:44.585Z,3.00
2022-11-20T10:57:31.245Z,3.40
2022-11-20T10:59:57.676Z,1.67
2022-11-20T11:02:25.185Z,12.50
2022-11-20T11:04:53.185Z,7.25
2022-11-20T11:07:28.935Z,13.00
2022-11-20T11:09:56.287Z,20.50
2022-11-20T11:12:24.543Z,12.33
2022-11-20T11:14:51.957Z,23.00
2022-11-20T11:17:38.635Z,5.75
2022-11-20T11:20:17.436Z,3.00
2022-11-20T11:22:46.277Z,4.00
2022-11-20T11:25:20.398Z,9.40
2022-11-20T11:27:48.786Z,2.00
2022-11-20T11:30:17.423Z,3.00
2022-11-20T11:32:44.207Z,6.40
2022-11-20T11:35:27.952Z,5.00
2022-11-20T11:38:14.607Z,4.00
2022-11-20T11:40:41.771Z,4.00
2022-11-20T11:43:38.112Z,4.75
2022-11-20T11:46:08.994Z,18.20
2022-11-20T11:48:35.455Z,7.20
2022-11-20T11:51:01.925Z,16.50
2022-11-20T11:53:28.869Z,29.20
2022-11-20T11:56:01.375Z,35.75
2022-11-20T11:58:48.259Z,2.20
2022-11-20T12:01:34.255Z,34.75
2022-11-20T12:04:04.959Z,9.00
2022-11-20T12:06:32.542Z,13.25
2022-11-20T12:09:02.250Z,16.75
2022-11-20T12:11:47.566Z,11.40
2022-11-20T12:14:25.138Z,4.40
2022-11-20T12:16:53.804Z,10.25
2022-11-20T12:19:20.754Z,16.75
2022-11-20T12:22:07.736Z,14.80
2022-11-20T12:24:55.574Z,7.20
2022-11-20T12:27:22.009Z,6.00
2022-11-20T12:30:06.824Z,14.00
2022-11-20T12:32:39.167Z,8.60
2022-11-20T12:35:24.373Z,5.40
2022-11-20T12:37:50.813Z,4.80
2022-11-20T12:40:39.705Z,3.25
2022-11-20T12:43:45.203Z,14.00
2022-11-20T12:46:34.405Z,16.20
2022-11-20T12:49:08.512Z,4.00
2022-11-20T12:51:34.900Z,2.00
2022-11-20T12:54:04.311Z,2.50
2022-11-20T12:56:44.021Z,4.00
2022-11-20T12:59:28.961Z,6.00
2022-11-20T13:01:59.562Z,4.00
2022-11-20T13:04:32.155Z,6.20
2022-11-20T13:06:59.286Z,6.50
2022-11-20T13:09:26.964Z,2.00
2022-11-20T13:12:11.926Z,0.60
2022-11-20T13:14:44.434Z,4.20
2022-11-20T13:17:13.904Z,6.00
2022-11-20T13:19:40.588Z,3.60
2022-11-20T13:22:09.140Z,3.60
2022-11-20T13:24:35.601Z,7.00
2022-11-20T13:27:06.704Z,5.40
2022-11-20T13:29:33.703Z,2.00
2022-11-20T13:32:08.390Z,5.75
2022-11-20T13:34:37.122Z,2.40
2022-11-20T13:37:04.887Z,7.00
2022-11-20T13:39:32.945Z,7.60
2022-11-20T13:42:19.621Z,7.40
2022-11-20T13:44:48.340Z,3.75
2022-11-20T13:47:25.328Z,7.25
2022-11-20T13:49:53.004Z,9.00
2022-11-20T13:52:38.131Z,4.00
2022-11-20T13:55:20.490Z,5.00
2022-11-20T13:57:55.888Z,14.60
2022-11-20T14:00:23.820Z,8.60
2022-11-20T14:03:00.447Z,14.25
2022-11-20T14:05:27.029Z,6.40
2022-11-20T14:07:54.314Z,7.00
2022-11-20T14:10:23.287Z,38.80
2022-11-20T14:12:52.425Z,31.60
2022-11-20T14:15:28.118Z,4.60
2022-11-20T14:17:54.806Z,3.00
2022-11-20T14:20:26.346Z,13.50
2022-11-20T14:22:53.727Z,3.00
2022-11-20T14:25:24.445Z,7.00
2022-11-20T14:27:55.513Z,2.40
2022-11-20T14:30:23.601Z,7.50
2022-11-20T14:32:50.839Z,4.80
2022-11-20T14:35:32.485Z,12.00
2022-11-20T14:37:59.151Z,16.40
2022-11-20T14:40:27.409Z,13.00
2022-11-20T14:42:54.069Z,16.80
2022-11-20T14:45:21.250Z,6.20
2022-11-20T14:47:47.889Z,6.25
2022-11-20T14:50:20.219Z,17.00
2022-11-20T14:52:57.183Z,9.40
2022-11-20T14:55:29.521Z,15.40
2022-11-20T14:57:57.227Z,24.40
2022-11-20T15:00:24.293Z,13.20
2022-11-20T15:02:51.817Z,19.40
2022-11-20T15:05:19.650Z,48.25
2022-11-20T15:07:47.520Z,40.00
2022-11-20T15:10:20.005Z,25.00
2022-11-20T15:12:51.389Z,43.25
2022-11-20T15:15:22.071Z,33.60
2022-11-20T15:17:48.537Z,21.40
2022-11-20T15:20:16.047Z,2.00
2022-11-20T15:22:42.540Z,19.00
2022-11-20T15:25:16.024Z,6.00
2022-11-20T15:27:42.915Z,13.33
2022-11-20T15:30:17.750Z,5.50
2022-11-20T15:32:45.111Z,7.25
2022-11-20T15:35:12.031Z,4.00
2022-11-20T15:37:38.853Z,11.00
2022-11-20T15:40:05.661Z,18.00
2022-11-20T15:42:32.098Z,22.00
2022-11-20T15:44:58.598Z,9.00
2022-11-20T15:47:32.438Z,3.00
2022-11-20T15:49:58.975Z,10.80
2022-11-20T15:52:25.410Z,16.00
2022-11-20T15:54:51.828Z,6.40
2022-11-20T15:57:18.253Z,11.60
2022-11-20T15:59:44.824Z,9.40
2022-11-20T16:02:19.172Z,6.00
2022-11-20T16:04:46.001Z,3.75
2022-11-20T16:07:12.468Z,8.80
2022-11-20T16:09:38.930Z,7.00
2022-11-20T16:12:05.536Z,11.00
2022-11-20T16:14:50.601Z,17.00
2022-11-20T16:17:36.954Z,5.25
2022-11-20T16:20:03.461Z,7.00
2022-11-20T16:22:29.869Z,11.00
2022-11-20T16:24:56.322Z,12.80
2022-11-20T16:27:22.748Z,5.80
2022-11-20T16:29:49.151Z,2.00
2022-11-20T16:32:15.629Z,1.50
2022-11-20T16:34:42.038Z,4.80
2022-11-20T16:37:08.464Z,1.20
2022-11-20T16:39:34.904Z,8.00
2022-11-20T16:42:04.389Z,3.40
2022-11-20T16:44:30.834Z,17.20
2022-11-20T16:46:57.250Z,37.50
2022-11-20T16:49:24.918Z,50.00
2022-11-20T16:51:51.852Z,34.75
2022-11-20T16:54:21.128Z,28.00
2022-11-20T16:56:48.375Z,38.25
2022-11-20T16:59:14.834Z,37.20
2022-11-20T17:01:43.116Z,39.75
2022-11-20T17:04:09.972Z,30.40
2022-11-20T17:06:37.546Z,35.25
2022-11-20T17:09:04.116Z,49.00
2022-11-20T17:11:30.572Z,17.60
2022-11-20T17:13:58.020Z,11.00
2022-11-20T17:16:24.762Z,17.00
2022-11-20T17:18:51.450Z,14.60
2022-11-20T17:21:18.582Z,17.00
2022-11-20T17:23:45.519Z,19.60
2022-11-20T17:26:16.485Z,12.40
2022-11-20T17:28:44.748Z,14.80
2022-11-20T17:31:12.992Z,9.50
2022-11-20T17:33:40.131Z,10.00
2022-11-20T17:36:07.385Z,22.20
2022-11-20T17:38:34.281Z,13.00
2022-11-20T17:41:05.309Z,12.50
2022-11-20T17:43:35.690Z,21.20
2022-11-20T17:46:05.228Z,41.80
2022-11-20T17:48:31.646Z,45.00
2022-11-20T17:51:06.264Z,24.80
2022-11-20T17:53:33.385Z,36.25
2022-11-20T17:56:18.587Z,27.00
2022-11-20T17:58:45.010Z,28.00
2022-11-20T18:01:11.523Z,29.50
2022-11-20T18:03:38.158Z,60.20
2022-11-20T18:06:11.768Z,173.00
2022-11-20T18:08:38.708Z,121.20
2022-11-20T18:11:14.093Z,82.75
2022-11-20T18:13:59.791Z,47.40
2022-11-20T18:16:26.798Z,68.00
2022-11-20T18:18:56.617Z,57.00
2022-11-20T18:21:23.802Z,57.25
2022-11-20T18:23:50.593Z,91.67
2022-11-20T18:26:17.609Z,94.50
2022-11-20T18:28:44.304Z,45.75
2022-11-20T18:31:11.081Z,41.75
2022-11-20T18:33:37.909Z,48.25
2022-11-20T18:36:11.580Z,40.40
2022-11-20T18:38:40.740Z,39.50
2022-11-20T18:41:08.343Z,37.00
2022-11-20T18:43:53.365Z,37.25
2022-11-20T18:46:22.001Z,32.40
2022-11-20T18:48:48.431Z,53.00
2022-11-20T18:51:16.300Z,38.60
2022-11-20T18:53:47.115Z,44.50
2022-11-20T18:56:14.173Z,40.60
2022-11-20T18:58:41.387Z,50.50
2022-11-20T19:01:08.379Z,48.25
2022-11-20T19:03:34.863Z,49.50
2022-11-20T19:06:01.327Z,32.50
2022-11-20T19:08:28.155Z,31.60
2022-11-20T19:10:54.607Z,27.80
2022-11-20T19:13:21.069Z,34.50
2022-11-20T19:15:47.593Z,44.00
2022-11-20T19:18:14.045Z,47.00
2022-11-20T19:20:40.469Z,40.20
2022-11-20T19:23:06.883Z,28.75
2022-11-20T19:25:37.910Z,19.33
2022-11-20T19:28:04.995Z,30.60
2022-11-20T19:30:31.401Z,26.25
2022-11-20T19:32:58.137Z,18.40
2022-11-20T19:35:24.784Z,32.50
2022-11-20T19:37:51.600Z,17.60
2022-11-20T19:40:18.017Z,17.00
2022-11-20T19:42:44.449Z,33.25
2022-11-20T19:45:10.926Z,40.00
2022-11-20T19:48:07.253Z,41.00
2022-11-20T19:50:23.952Z,33.00
2022-11-20T19:52:53.240Z,32.40
2022-11-20T19:55:23.942Z,30.00
2022-11-20T19:57:50.517Z,26.00
2022-11-20T20:00:24.467Z,31.50
2022-11-20T20:02:54.739Z,47.25
2022-11-20T20:05:21.145Z,43.25
2022-11-20T20:07:47.604Z,33.00
2022-11-20T20:10:14.786Z,28.20
2022-11-20T20:12:41.217Z,44.60
2022-11-20T20:15:07.813Z,30.00
2022-11-20T20:17:34.274Z,33.00
2022-11-20T20:20:02.262Z,31.20
2022-11-20T20:22:28.691Z,33.00
2022-11-20T20:24:55.405Z,31.00
2022-11-20T20:27:21.846Z,33.50
2022-11-20T20:29:48.280Z,30.00
2022-11-20T20:32:14.979Z,30.40
2022-11-20T20:34:41.410Z,35.00
2022-11-20T20:37:07.810Z,36.00
2022-11-20T20:39:34.273Z,42.40
2022-11-20T20:42:00.754Z,25.75
2022-11-20T20:44:45.804Z,20.20
2022-11-20T20:47:12.294Z,29.00
2022-11-20T20:49:38.704Z,36.00
2022-11-20T20:52:08.319Z,48.50
2022-11-20T20:54:34.774Z,19.20
2022-11-20T20:57:01.189Z,23.00
2022-11-20T20:59:27.673Z,30.00
2022-11-20T21:01:54.114Z,28.00
2022-11-20T21:04:20.556Z,24.50
2022-11-20T21:06:46.996Z,26.00
2022-11-20T21:09:13.448Z,30.00
2022-11-20T21:11:40.901Z,21.25
2022-11-20T21:14:07.327Z,21.80
2022-11-20T21:16:41.139Z,25.40
2022-11-20T21:19:08.318Z,29.20
2022-11-20T21:21:53.367Z,29.60
2022-11-20T21:24:20.017Z,28.75
2022-11-20T21:26:46.556Z,24.20
2022-11-20T21:29:13.039Z,23.00
2022-11-20T21:31:39.472Z,21.20
2022-11-20T21:34:07.217Z,27.00
2022-11-20T21:36:33.744Z,22.50
2022-11-20T21:39:00.151Z,18.75
2022-11-20T21:41:27.643Z,23.00
2022-11-20T21:44:24.064Z,26.25
2022-11-20T21:46:42.460Z,24.00
2022-11-20T21:49:09.443Z,18.50
2022-11-20T21:51:35.902Z,24.25
2022-11-20T21:54:02.318Z,28.25
2022-11-20T21:56:28.745Z,22.60
2022-11-20T21:58:55.428Z,21.25
2022-11-20T22:01:29.113Z,18.40
2022-11-20T22:03:57.292Z,13.50
2022-11-20T22:06:29.469Z,17.80
2022-11-20T22:08:55.895Z,20.75
2022-11-20T22:11:22.427Z,16.60
2022-11-20T22:14:07.388Z,12.00
2022-11-20T22:16:34.823Z,9.00
2022-11-20T22:19:01.353Z,11.00
2022-11-20T22:21:28.730Z,11.25
2022-11-20T22:23:55.654Z,9.00
2022-11-20T22:26:23.314Z,10.00
2022-11-20T22:28:50.600Z,9.00
2022-11-20T22:31:18.130Z,11.00
2022-11-20T22:33:44.927Z,15.00
2022-11-20T22:36:12.714Z,11.60
2022-11-20T22:38:39.766Z,9.00
2022-11-20T22:41:08.024Z,8.00
2022-11-20T22:43:34.489Z,10.00
2022-11-20T22:46:08.655Z,7.00
2022-11-20T22:48:36.091Z,9.00
2022-11-20T22:51:10.016Z,10.00
2022-11-20T22:53:36.822Z,13.33
2022-11-20T22:56:03.772Z,9.00
2022-11-20T22:58:30.802Z,11.00
2022-11-20T23:01:15.967Z,10.50
2022-11-20T23:03:43.587Z,9.00
2022-11-20T23:06:10.763Z,8.50
2022-11-20T23:08:38.027Z,9.00
2022-11-20T23:11:06.492Z,7.50
2022-11-20T23:13:32.941Z,11.00
2022-11-20T23:16:08.275Z,10.00
2022-11-20T23:18:35.467Z,13.00
2022-11-20T23:21:12.108Z,11.40
2022-11-20T23:23:38.767Z,15.00
2022-11-20T23:26:06.405Z,12.60
2022-11-20T23:28:33.154Z,15.20
2022-11-20T23:30:59.780Z,14.00
2022-11-20T23:33:26.257Z,9.00
2022-11-20T23:35:52.758Z,13.00
2022-11-20T23:38:19.239Z,18.00
2022-11-20T23:40:49.522Z,8.00
2022-11-20T23:43:16.330Z,6.00
2022-11-20T23:45:46.720Z,7.00
2022-11-20T23:48:13.498Z,6.00
2022-11-20T23:50:40.099Z,7.00
2022-11-20T23:53:06.756Z,7.40
2022-11-20T23:55:33.257Z,6.50
2022-11-20T23:57:59.776Z,8.00
